A- A+ FrançaisEnglishEspañol中国

le plus proche LFBT Tarbes-Lourdes-PyrénéesLFNA Gap-Tallard LFRD Dinard-Pleurtuit-St-Malo LFML Marseille

manche à air

La météo aéronautique pour les pilotes, la préparation du vol avec les METAR (METeorological Aerodrome Report, message d'observation des conditions météorologiques pour l'aviation) et Les TAF (Terminal Aerodrome Forecast : message de prévision à court terme des conditions météorologiques pour l'aviation). Et les autres ressources comme les VAC (Visual Approch Chart) et les NOTAM (Notice To Airman) pour préprer les vols.

Aéroport Hawarden (Royaume-Uni) / OACI EGNR/ IATA CEG

L'altitude de l'aéroport Hawarden est de 14 m=46 ft. Il est situé à proximité de Hawarden (Royaume-Uni). La météo générale à 5 jours est disponible pour Blacon situé à 4.8 km.

METAR de l'aéroport Hawarden - EGNR

EGNR 022050Z 22012KT 9999 FEW025 SCT039 12/08 Q1009

Décodage du METAR de l'aéroport Hawarden (GB)

METAR émis par EGNR le jeudi 2 janvier 2020 à 20:50 heure TU. Attention ce METAR est obsolète car il a été émis il y a 11 heure et 38 minutes.

La visibilité est de supérieure à 10 km=supérieure à 6.2 sm.

La température est de 12°C=54 °F et le point rosée est de 8°C=46 °F . Ce qui correspond à 77% d'humidité relative.

Le QNH est de 1009 hPa=29.8 inHg

Vent de 12 kt=22 km/h, orienté à 220°.

Nuages : Quelques nuages à 2500 ft=760 mètres. Nuages épars à 3900 ft=1190 mètres.

TAF de l'aéroport Hawarden - EGNR

EGNR 021701Z 0218/0221 19008KT 9999 SCT030 PROB30 TEMPO 0218/0221 21017G27KT 6000 RA BKN012

EGNR 021701Z 0218/0221 19008KT 9999 nuages épars à 030 probabilité de 30% d'avoir temporairement 0218/0221 21017G27KT 6000 pluie couverture nuageuse fragmentée à 012

Aéroport à proximité de Hawarden

Météo générale à 5 jours à Blacon (4.8 km)EGGP Aéroport Liverpool (19 km)EGCT Aéroport Tilstock (35 km)EGCV Aéroport Sleap (41 km)EGOW Aéroport Woodvale (45 km)EGOE Aéroport Ternhill (45 km)EGOS Aéroport Shawbury (47 km)

Vue aérienne de l'aéroport Hawarden

NOTAM de l'aéroport Hawarden

Les NOTAM sont fournis sans aucune garantie de leur actualité. Le pilote est le seul responsable de la vérification de sa validité avant de l'utiliser opérationnellement pour préparer un vol ou l'utiliser lors de sa navigation.

Pas de NOTAM

Sources des données